Time;durP1;ratioP1;P1;durP2;ratioP2;P2;SDS_P1;SDS_P2;PMS_P1;PMS_P2;Temp;Humidity;BMP_temperature;BMP_pressure;BME280_temperature;BME280_humidity;BME280_pressure;Samples;Min_cycle;Max_cycle;Signal;HPM_P1;HPM_P2
2021/10/01 00:00:06;0.00;0.00;0.62;0.00;0.00;0.62;1.40;0.90;;;27.70;30.50;;;;;;2253503;61;20396;-54
2021/10/01 00:02:51;0.00;0.00;0.62;0.00;0.00;0.62;1.20;0.70;;;27.70;30.50;;;;;;2253895;61;20404;-54
2021/10/01 00:05:39;0.00;0.00;0.62;0.00;0.00;0.62;1.50;0.80;;;27.70;30.50;;;;;;2253801;61;20427;-50
2021/10/01 00:08:24;0.00;0.00;0.62;0.00;0.00;0.62;1.30;0.80;;;27.70;30.50;;;;;;2253867;61;20731;-49
2021/10/01 00:11:08;0.00;0.00;0.62;0.00;0.00;0.62;1.60;0.80;;;27.70;30.50;;;;;;2254176;61;20415;-50
2021/10/01 00:13:53;0.00;0.00;0.62;0.00;0.00;0.62;1.60;1.00;;;27.70;30.50;;;;;;2253812;61;20386;-49
2021/10/01 00:16:37;0.00;0.00;0.62;0.00;0.00;0.62;1.30;0.80;;;27.70;30.50;;;;;;2253379;61;20355;-50
2021/10/01 00:19:23;0.00;0.00;0.62;0.00;0.00;0.62;1.20;0.80;;;27.70;30.50;;;;;;2254202;61;20388;-50
2021/10/01 00:22:09;0.00;0.00;0.62;0.00;0.00;0.62;1.73;1.00;;;27.70;30.50;;;;;;2253621;61;20724;-51
2021/10/01 00:24:54;0.00;0.00;0.62;0.00;0.00;0.62;1.33;0.70;;;27.70;30.60;;;;;;2253725;61;20406;-49
2021/10/01 00:27:38;0.00;0.00;0.62;0.00;0.00;0.62;1.50;0.70;;;27.70;30.50;;;;;;2253796;61;20629;-51
2021/10/01 00:30:24;0.00;0.00;0.62;0.00;0.00;0.62;1.27;0.70;;;27.70;30.60;;;;;;2253898;61;20363;-50
2021/10/01 00:33:08;0.00;0.00;0.62;0.00;0.00;0.62;1.30;0.77;;;27.70;30.60;;;;;;2253767;61;20360;-49
2021/10/01 00:35:53;0.00;0.00;0.62;0.00;0.00;0.62;2.23;0.90;;;27.70;30.60;;;;;;2253648;61;20395;-49
2021/10/01 00:38:38;0.00;0.00;0.62;0.00;0.00;0.62;1.60;0.90;;;27.70;30.60;;;;;;2253537;61;20653;-52
2021/10/01 00:41:23;0.00;0.00;0.62;0.00;0.00;0.62;1.50;0.90;;;27.70;30.60;;;;;;2253556;61;20460;-51
2021/10/01 00:44:08;0.00;0.00;0.62;0.00;0.00;0.62;1.40;0.80;;;27.60;30.50;;;;;;2253818;61;20402;-52
2021/10/01 00:46:52;0.00;0.00;0.62;0.00;0.00;0.62;1.33;0.77;;;27.60;30.50;;;;;;2253886;61;20399;-50
2021/10/01 00:49:37;0.00;0.00;0.62;0.00;0.00;0.62;1.70;0.97;;;27.70;30.60;;;;;;2253682;61;20371;-52
2021/10/01 00:52:21;0.00;0.00;0.62;0.00;0.00;0.62;1.40;0.80;;;27.60;30.50;;;;;;2253753;61;20356;-48
2021/10/01 00:55:08;0.00;0.00;0.62;0.00;0.00;0.62;1.30;0.80;;;27.60;30.50;;;;;;2253467;61;20612;-51
2021/10/01 00:57:52;0.00;0.00;0.62;0.00;0.00;0.62;1.40;0.80;;;27.60;30.50;;;;;;2253393;61;20371;-48
2021/10/01 01:01:09;0.00;0.00;0.62;0.00;0.00;0.62;1.27;0.70;;;27.60;30.50;;;;;;2252987;61;20410;-53
2021/10/01 01:03:59;0.00;0.00;0.62;0.00;0.00;0.62;1.30;0.70;;;27.60;30.50;;;;;;2253861;61;20780;-50
2021/10/01 01:06:51;0.00;0.00;0.62;0.00;0.00;0.62;1.20;0.70;;;27.60;30.50;;;;;;2253003;61;20356;-50
2021/10/01 01:09:45;0.00;0.00;0.62;0.00;0.00;0.62;1.40;0.80;;;27.60;30.50;;;;;;2256252;61;20392;-48
2021/10/01 01:12:43;0.00;0.00;0.62;0.00;0.00;0.62;1.20;0.80;;;27.60;30.50;;;;;;2253732;61;20387;-48
2021/10/01 01:15:31;0.00;0.00;0.62;0.00;0.00;0.62;1.43;0.90;;;27.60;30.60;;;;;;2252932;61;20454;-51
2021/10/01 01:18:27;0.00;0.00;0.62;0.00;0.00;0.62;1.27;0.70;;;27.60;30.60;;;;;;2253391;61;20500;-49
2021/10/01 01:21:23;0.00;0.00;0.62;0.00;0.00;0.62;3.10;0.80;;;27.60;30.60;;;;;;2253258;61;20399;-53
2021/10/01 01:24:45;0.00;0.00;0.62;0.00;0.00;0.62;1.70;0.80;;;27.60;30.50;;;;;;2253207;61;20388;-48
2021/10/01 01:27:59;0.00;0.00;0.62;0.00;0.00;0.62;3.00;0.90;;;27.60;30.50;;;;;;2253479;61;20391;-54
2021/10/01 01:30:49;0.00;0.00;0.62;0.00;0.00;0.62;1.60;1.00;;;27.50;30.10;;;;;;2253089;61;20484;-51
2021/10/01 01:33:38;0.00;0.00;0.62;0.00;0.00;0.62;1.40;0.83;;;27.50;30.00;;;;;;2253244;61;20359;-49
2021/10/01 01:36:22;0.00;0.00;0.62;0.00;0.00;0.62;2.00;1.00;;;27.50;29.90;;;;;;2252812;61;20367;-51
2021/10/01 01:39:11;0.00;0.00;0.62;0.00;0.00;0.62;1.80;0.83;;;27.50;29.70;;;;;;2253340;61;20427;-50
2021/10/01 01:41:58;0.00;0.00;0.62;0.00;0.00;0.62;1.87;1.00;;;27.40;29.40;;;;;;2253096;61;20363;-53
2021/10/01 01:44:44;0.00;0.00;0.62;0.00;0.00;0.62;2.00;0.90;;;27.40;29.40;;;;;;2252925;61;20383;-50
2021/10/01 01:47:30;0.00;0.00;0.62;0.00;0.00;0.62;2.30;0.97;;;27.30;29.30;;;;;;2253771;61;20363;-51
2021/10/01 01:50:18;0.00;0.00;0.62;0.00;0.00;0.62;1.97;1.30;;;27.30;29.40;;;;;;2253227;61;20352;-49
2021/10/01 01:53:05;0.00;0.00;0.62;0.00;0.00;0.62;2.00;1.10;;;27.20;29.30;;;;;;2252648;61;20363;-49
2021/10/01 01:55:50;0.00;0.00;0.62;0.00;0.00;0.62;3.50;1.37;;;27.20;29.20;;;;;;2253439;61;20368;-49
2021/10/01 01:58:38;0.00;0.00;0.62;0.00;0.00;0.62;2.67;1.10;;;27.20;29.20;;;;;;2252639;61;20379;-52
2021/10/01 02:01:55;0.00;0.00;0.62;0.00;0.00;0.62;1.53;0.93;;;27.10;29.00;;;;;;2253256;61;20411;-53
2021/10/01 02:04:41;0.00;0.00;0.62;0.00;0.00;0.62;2.10;1.10;;;27.10;29.00;;;;;;2253169;61;20375;-50
2021/10/01 02:07:28;0.00;0.00;0.62;0.00;0.00;0.62;2.40;1.10;;;27.10;29.10;;;;;;2252742;61;20371;-55
2021/10/01 02:10:15;0.00;0.00;0.62;0.00;0.00;0.62;3.20;1.40;;;27.00;29.10;;;;;;2253441;61;20363;-49
2021/10/01 02:13:02;0.00;0.00;0.62;0.00;0.00;0.62;1.57;0.97;;;27.00;29.00;;;;;;2253466;61;20585;-50
2021/10/01 02:15:54;0.00;0.00;0.62;0.00;0.00;0.62;3.63;1.13;;;26.90;28.90;;;;;;2253187;61;20436;-49
2021/10/01 02:18:44;0.00;0.00;0.62;0.00;0.00;0.62;1.40;1.10;;;26.90;28.90;;;;;;2255674;61;21042;-52
2021/10/01 02:21:31;0.00;0.00;0.62;0.00;0.00;0.62;1.50;1.03;;;26.90;28.90;;;;;;2487008;53;20363;-51
2021/10/01 02:24:20;0.00;0.00;0.62;0.00;0.00;0.62;3.17;1.17;;;26.90;28.90;;;;;;2253202;61;20423;-53
2021/10/01 02:27:12;0.00;0.00;0.62;0.00;0.00;0.62;3.30;1.00;;;26.80;28.90;;;;;;2255900;61;20363;-54
2021/10/01 02:30:02;0.00;0.00;0.62;0.00;0.00;0.62;2.17;1.00;;;26.80;28.90;;;;;;2255441;61;20486;-50
2021/10/01 02:32:51;0.00;0.00;0.62;0.00;0.00;0.62;1.50;1.03;;;26.80;28.90;;;;;;2255880;61;20752;-48
2021/10/01 02:35:36;0.00;0.00;0.62;0.00;0.00;0.62;1.50;0.90;;;26.70;28.80;;;;;;2253047;61;20419;-53
2021/10/01 02:38:20;0.00;0.00;0.62;0.00;0.00;0.62;2.70;1.10;;;26.70;28.70;;;;;;2255716;61;20383;-51
2021/10/01 02:41:07;0.00;0.00;0.62;0.00;0.00;0.62;2.33;1.00;;;26.70;28.70;;;;;;2253256;61;20360;-53
2021/10/01 02:43:51;0.00;0.00;0.62;0.00;0.00;0.62;1.70;1.00;;;26.60;28.50;;;;;;2255549;61;20395;-53
2021/10/01 02:46:36;0.00;0.00;0.62;0.00;0.00;0.62;2.23;1.27;;;26.60;28.50;;;;;;2253564;61;20418;-52
2021/10/01 02:49:20;0.00;0.00;0.62;0.00;0.00;0.62;3.00;1.60;;;26.60;28.50;;;;;;2255850;61;20352;-51
2021/10/01 02:52:14;0.00;0.00;0.62;0.00;0.00;0.62;1.90;1.17;;;26.60;28.50;;;;;;2255437;61;20367;-51
2021/10/01 02:55:05;0.00;0.00;0.62;0.00;0.00;0.62;2.53;1.03;;;26.50;28.50;;;;;;2253122;61;20599;-54
2021/10/01 02:58:02;0.00;0.00;0.62;0.00;0.00;0.62;2.37;1.13;;;26.50;28.50;;;;;;2255165;61;20582;-51
2021/10/01 03:00:49;0.00;0.00;0.62;0.00;0.00;0.62;2.27;1.20;;;26.50;28.60;;;;;;2255931;61;20391;-49
2021/10/01 03:03:40;0.00;0.00;0.62;0.00;0.00;0.62;2.80;1.00;;;26.40;28.50;;;;;;2255615;61;20403;-50
2021/10/01 03:06:26;0.00;0.00;0.62;0.00;0.00;0.62;1.80;1.23;;;26.40;28.50;;;;;;2253002;61;20767;-50
2021/10/01 03:09:11;0.00;0.00;0.62;0.00;0.00;0.62;2.20;1.50;;;26.40;28.60;;;;;;2253604;61;20356;-52
2021/10/01 03:11:59;0.00;0.00;0.62;0.00;0.00;0.62;2.23;1.10;;;26.40;28.60;;;;;;2255694;61;20387;-51
2021/10/01 03:14:46;0.00;0.00;0.62;0.00;0.00;0.62;1.73;1.10;;;26.30;28.50;;;;;;2255472;61;20386;-53
2021/10/01 03:17:32;0.00;0.00;0.62;0.00;0.00;0.62;3.20;1.73;;;26.30;28.60;;;;;;2255826;61;20481;-53
2021/10/01 03:20:17;0.00;0.00;0.62;0.00;0.00;0.62;1.87;1.10;;;26.30;28.60;;;;;;2255631;61;20434;-55
2021/10/01 03:23:02;0.00;0.00;0.62;0.00;0.00;0.62;2.90;1.27;;;26.30;28.60;;;;;;2252890;61;20356;-54
2021/10/01 03:25:47;0.00;0.00;0.62;0.00;0.00;0.62;3.40;1.20;;;26.30;28.60;;;;;;2255782;61;20379;-53
2021/10/01 03:28:32;0.00;0.00;0.62;0.00;0.00;0.62;2.40;1.30;;;26.30;28.60;;;;;;2255253;61;20356;-53
2021/10/01 03:31:18;0.00;0.00;0.62;0.00;0.00;0.62;2.17;1.17;;;26.30;28.60;;;;;;2255900;61;20424;-52
2021/10/01 03:34:02;0.00;0.00;0.62;0.00;0.00;0.62;1.70;1.10;;;26.30;28.60;;;;;;2255598;61;20569;-49
2021/10/01 03:36:49;0.00;0.00;0.62;0.00;0.00;0.62;2.13;1.33;;;26.20;28.60;;;;;;2255105;61;20573;-51
2021/10/01 03:39:33;0.00;0.00;0.62;0.00;0.00;0.62;1.50;1.10;;;26.20;28.60;;;;;;2253122;61;20383;-50
2021/10/01 03:42:19;0.00;0.00;0.62;0.00;0.00;0.62;1.90;1.00;;;26.20;28.60;;;;;;2255324;61;20384;-49
2021/10/01 03:45:08;0.00;0.00;0.62;0.00;0.00;0.62;2.37;1.63;;;26.20;28.60;;;;;;2253129;61;20379;-50
2021/10/01 03:47:55;0.00;0.00;0.62;0.00;0.00;0.62;2.13;1.50;;;26.20;28.60;;;;;;2255631;61;20368;-53
2021/10/01 03:50:40;0.00;0.00;0.62;0.00;0.00;0.62;3.70;1.27;;;26.20;28.70;;;;;;2255149;61;20359;-50
2021/10/01 03:53:25;0.00;0.00;0.62;0.00;0.00;0.62;1.67;1.10;;;26.20;28.70;;;;;;2253261;61;20367;-49
2021/10/01 03:56:16;0.00;0.00;0.62;0.00;0.00;0.62;1.73;1.20;;;26.20;28.70;;;;;;2252934;61;20383;-49
2021/10/01 03:59:00;0.00;0.00;0.62;0.00;0.00;0.62;2.07;1.20;;;26.10;28.70;;;;;;2255124;61;20383;-52
2021/10/01 04:01:45;0.00;0.00;0.62;0.00;0.00;0.62;1.97;1.07;;;26.10;28.70;;;;;;2253039;61;20564;-53
2021/10/01 04:04:31;0.00;0.00;0.62;0.00;0.00;0.62;2.27;1.30;;;26.10;28.70;;;;;;2252742;61;20880;-50
2021/10/01 04:07:17;0.00;0.00;0.62;0.00;0.00;0.62;2.13;1.37;;;26.10;28.70;;;;;;2255697;61;20359;-49
2021/10/01 04:10:03;0.00;0.00;0.62;0.00;0.00;0.62;2.10;1.63;;;26.10;28.70;;;;;;2255771;61;20363;-53
2021/10/01 04:12:48;0.00;0.00;0.62;0.00;0.00;0.62;1.80;1.43;;;26.00;28.60;;;;;;2255666;61;20651;-50
2021/10/01 04:15:41;0.00;0.00;0.62;0.00;0.00;0.62;2.60;1.43;;;26.00;28.50;;;;;;2256399;61;20382;-51
2021/10/01 04:18:25;0.00;0.00;0.62;0.00;0.00;0.62;2.57;1.30;;;26.00;28.40;;;;;;2253365;61;20383;-49
2021/10/01 04:21:11;0.00;0.00;0.62;0.00;0.00;0.62;1.93;1.30;;;26.00;28.80;;;;;;2255764;61;20578;-49
2021/10/01 04:23:56;0.00;0.00;0.62;0.00;0.00;0.62;4.80;1.90;;;25.90;28.20;;;;;;2256314;61;20451;-49
2021/10/01 04:26:59;0.00;0.00;0.62;0.00;0.00;0.62;3.40;1.40;;;25.90;28.00;;;;;;2256142;61;20654;-51
2021/10/01 04:29:44;0.00;0.00;0.62;0.00;0.00;0.62;4.23;1.60;;;25.80;27.80;;;;;;2256312;61;20359;-51
2021/10/01 04:32:29;0.00;0.00;0.62;0.00;0.00;0.62;4.20;1.83;;;25.80;27.80;;;;;;2256161;61;20427;-52
2021/10/01 04:35:14;0.00;0.00;0.62;0.00;0.00;0.62;2.20;1.47;;;25.70;27.80;;;;;;2253069;61;20376;-50
2021/10/01 04:38:00;0.00;0.00;0.62;0.00;0.00;0.62;1.93;1.23;;;25.70;27.70;;;;;;2256373;61;20414;-51
2021/10/01 04:40:45;0.00;0.00;0.62;0.00;0.00;0.62;3.33;1.60;;;25.60;27.60;;;;;;2256168;61;20708;-50
2021/10/01 04:43:30;0.00;0.00;0.62;0.00;0.00;0.62;3.60;1.53;;;25.50;27.60;;;;;;2255849;61;20364;-50
2021/10/01 04:46:37;0.00;0.00;0.62;0.00;0.00;0.62;2.77;1.70;;;25.50;27.70;;;;;;2253754;61;20411;-50
2021/10/01 04:49:24;0.00;0.00;0.62;0.00;0.00;0.62;3.37;2.00;;;25.40;27.70;;;;;;2256120;61;20399;-50
2021/10/01 04:52:08;0.00;0.00;0.62;0.00;0.00;0.62;5.50;1.60;;;25.40;27.80;;;;;;2256250;61;20355;-55
2021/10/01 04:54:55;0.00;0.00;0.62;0.00;0.00;0.62;3.60;1.40;;;25.40;27.80;;;;;;2256047;61;20387;-51
2021/10/01 04:57:39;0.00;0.00;0.62;0.00;0.00;0.62;3.10;1.30;;;25.40;27.80;;;;;;2255588;61;20694;-49
2021/10/01 05:00:47;0.00;0.00;0.62;0.00;0.00;0.62;2.50;1.50;;;25.30;27.80;;;;;;2253955;61;20387;-51
2021/10/01 05:03:50;0.00;0.00;0.62;0.00;0.00;0.62;2.93;1.70;;;25.20;27.80;;;;;;2253531;61;20411;-53
2021/10/01 05:07:04;0.00;0.00;0.62;0.00;0.00;0.62;2.77;1.47;;;25.20;27.80;;;;;;2253164;61;20406;-49
2021/10/01 05:10:10;0.00;0.00;0.62;0.00;0.00;0.62;3.10;1.70;;;25.10;27.80;;;;;;2253732;61;20360;-53
2021/10/01 05:13:13;0.00;0.00;0.62;0.00;0.00;0.62;2.40;1.30;;;25.10;27.70;;;;;;2253685;61;20359;-48
2021/10/01 05:16:16;0.00;0.00;0.62;0.00;0.00;0.62;2.57;1.30;;;25.10;27.80;;;;;;2253548;61;20399;-50
2021/10/01 05:19:33;0.00;0.00;0.62;0.00;0.00;0.62;1.77;1.20;;;25.10;27.90;;;;;;2248407;61;20710;-51
2021/10/01 05:22:43;0.00;0.00;0.62;0.00;0.00;0.62;2.50;1.70;;;25.00;27.80;;;;;;2255925;61;20387;-51
2021/10/01 05:25:29;0.00;0.00;0.62;0.00;0.00;0.62;3.30;1.20;;;25.00;27.90;;;;;;2253316;61;20412;-51
2021/10/01 05:28:13;0.00;0.00;0.62;0.00;0.00;0.62;2.33;1.53;;;24.90;27.80;;;;;;2256189;61;20360;-51
2021/10/01 05:30:58;0.00;0.00;0.62;0.00;0.00;0.62;3.00;1.20;;;25.00;27.90;;;;;;2253606;61;20364;-50
2021/10/01 05:33:42;0.00;0.00;0.62;0.00;0.00;0.62;2.60;1.40;;;24.90;27.80;;;;;;2253476;61;20434;-51
2021/10/01 05:36:27;0.00;0.00;0.62;0.00;0.00;0.62;2.57;1.17;;;24.90;27.80;;;;;;2253764;61;20404;-52
2021/10/01 05:39:11;0.00;0.00;0.62;0.00;0.00;0.62;2.70;1.20;;;24.90;27.80;;;;;;2255972;61;20386;-50
2021/10/01 05:41:58;0.00;0.00;0.62;0.00;0.00;0.62;2.10;1.10;;;24.90;27.80;;;;;;2255607;61;20372;-49
2021/10/01 05:44:42;0.00;0.00;0.62;0.00;0.00;0.62;3.33;1.50;;;24.90;27.80;;;;;;2253657;61;20388;-48
2021/10/01 05:47:46;0.00;0.00;0.62;0.00;0.00;0.62;2.47;1.50;;;24.80;27.70;;;;;;2253326;61;20363;-50
2021/10/01 05:50:59;0.00;0.00;0.62;0.00;0.00;0.62;1.53;1.03;;;24.80;27.80;;;;;;2252711;61;20448;-51
2021/10/01 05:57:14;0.00;0.00;0.62;0.00;0.00;0.62;2.37;1.30;;;24.70;27.60;;;;;;2253344;61;20403;-50
2021/10/01 06:00:17;0.00;0.00;0.62;0.00;0.00;0.62;3.47;2.47;;;24.70;27.20;;;;;;2255917;61;20680;-49
2021/10/01 06:03:01;0.00;0.00;0.62;0.00;0.00;0.62;2.70;1.50;;;24.60;27.30;;;;;;2255490;61;20360;-53
2021/10/01 06:05:46;0.00;0.00;0.62;0.00;0.00;0.62;4.67;1.80;;;24.60;27.40;;;;;;2256038;61;20751;-51
2021/10/01 06:08:30;0.00;0.00;0.62;0.00;0.00;0.62;2.57;1.53;;;24.50;27.30;;;;;;2253504;61;20355;-50
2021/10/01 06:11:15;0.00;0.00;0.62;0.00;0.00;0.62;3.07;1.43;;;24.50;27.30;;;;;;2253185;61;20475;-51
2021/10/01 06:14:01;0.00;0.00;0.62;0.00;0.00;0.62;4.70;1.80;;;24.40;27.20;;;;;;2257339;61;20419;-54
2021/10/01 06:16:46;0.00;0.00;0.62;0.00;0.00;0.62;3.33;1.40;;;24.40;27.30;;;;;;2256198;61;20363;-53
2021/10/01 06:19:33;0.00;0.00;0.62;0.00;0.00;0.62;3.07;1.30;;;24.30;27.30;;;;;;2254482;61;20738;-54
2021/10/01 06:22:18;0.00;0.00;0.62;0.00;0.00;0.62;2.67;1.00;;;24.30;27.40;;;;;;2257939;61;20471;-57
2021/10/01 06:25:04;0.00;0.00;0.62;0.00;0.00;0.62;2.23;1.40;;;24.30;27.50;;;;;;2254997;61;20472;-56
2021/10/01 06:27:49;0.00;0.00;0.62;0.00;0.00;0.62;6.10;1.57;;;24.20;27.50;;;;;;2255768;61;20368;-51
2021/10/01 06:30:35;0.00;0.00;0.62;0.00;0.00;0.62;2.47;1.37;;;24.20;27.50;;;;;;2253163;61;20384;-56
2021/10/01 06:33:21;0.00;0.00;0.62;0.00;0.00;0.62;2.23;1.43;;;24.20;27.60;;;;;;2252487;61;20372;-56
2021/10/01 06:36:05;0.00;0.00;0.62;0.00;0.00;0.62;3.30;1.60;;;24.20;27.60;;;;;;2482634;53;20388;-51
2021/10/01 06:38:50;0.00;0.00;0.62;0.00;0.00;0.62;2.00;1.13;;;24.20;27.60;;;;;;2249240;61;20387;-52
2021/10/01 06:41:35;0.00;0.00;0.62;0.00;0.00;0.62;2.17;1.20;;;24.20;27.60;;;;;;2248759;61;20408;-58
2021/10/01 06:44:25;0.00;0.00;0.62;0.00;0.00;0.62;4.73;1.40;;;24.20;27.60;;;;;;2249391;61;20648;-57
2021/10/01 06:47:16;0.00;0.00;0.62;0.00;0.00;0.62;2.80;1.50;;;24.20;27.70;;;;;;2249246;61;20416;-59
2021/10/01 07:45:31;0.00;0.00;0.62;0.00;0.00;0.62;3.93;1.50;;;24.60;28.00;;;;;;2249022;61;20490;-49
2021/10/01 08:18:34;0.00;0.00;0.62;0.00;0.00;0.62;1.80;1.17;;;24.80;28.30;;;;;;2249608;61;20359;-55
2021/10/01 08:21:25;0.00;0.00;0.62;0.00;0.00;0.62;2.33;1.20;;;24.90;28.40;;;;;;2248858;61;20395;-58
2021/10/01 08:24:10;0.00;0.00;0.62;0.00;0.00;0.62;1.80;1.10;;;24.90;28.40;;;;;;2249073;61;20843;-54
2021/10/01 08:26:55;0.00;0.00;0.62;0.00;0.00;0.62;1.90;1.10;;;24.90;28.40;;;;;;2250131;61;20396;-57
2021/10/01 08:29:39;0.00;0.00;0.62;0.00;0.00;0.62;1.50;0.90;;;25.00;28.50;;;;;;2249797;61;20810;-52
2021/10/01 08:32:24;0.00;0.00;0.62;0.00;0.00;0.62;1.50;0.90;;;25.00;28.50;;;;;;2249219;61;20396;-50
2021/10/01 08:35:10;0.00;0.00;0.62;0.00;0.00;0.62;1.80;1.07;;;25.00;28.50;;;;;;2249993;61;20385;-55
2021/10/01 08:37:59;0.00;0.00;0.62;0.00;0.00;0.62;2.33;1.07;;;25.10;28.60;;;;;;2248961;61;20365;-58
2021/10/01 08:40:44;0.00;0.00;0.62;0.00;0.00;0.62;2.00;1.00;;;25.10;28.50;;;;;;2249762;61;20388;-54
2021/10/01 08:43:31;0.00;0.00;0.62;0.00;0.00;0.62;1.40;0.90;;;25.10;28.50;;;;;;2249669;61;20393;-56
2021/10/01 08:46:17;0.00;0.00;0.62;0.00;0.00;0.62;1.80;0.90;;;25.20;28.60;;;;;;2249669;61;20569;-51
2021/10/01 08:49:07;0.00;0.00;0.62;0.00;0.00;0.62;2.90;0.90;;;25.20;28.60;;;;;;2249764;61;20429;-54
2021/10/01 08:51:51;0.00;0.00;0.62;0.00;0.00;0.62;1.47;0.90;;;25.20;28.60;;;;;;2249565;61;20433;-57
2021/10/01 08:54:40;0.00;0.00;0.62;0.00;0.00;0.62;1.83;1.10;;;25.30;28.70;;;;;;2248870;61;20392;-54
2021/10/01 08:57:25;0.00;0.00;0.62;0.00;0.00;0.62;1.90;1.00;;;25.30;28.70;;;;;;2249813;61;20365;-54
2021/10/01 09:00:14;0.00;0.00;0.62;0.00;0.00;0.62;2.17;1.10;;;25.30;28.70;;;;;;2249412;61;20440;-56
2021/10/01 09:02:59;0.00;0.00;0.62;0.00;0.00;0.62;1.50;1.00;;;25.30;28.70;;;;;;2249617;61;20364;-57
2021/10/01 09:05:43;0.00;0.00;0.62;0.00;0.00;0.62;1.60;0.90;;;25.40;28.70;;;;;;2249575;61;20388;-51
2021/10/01 09:08:30;0.00;0.00;0.62;0.00;0.00;0.62;1.80;1.00;;;25.40;28.70;;;;;;2249831;61;20361;-49
2021/10/01 09:11:17;0.00;0.00;0.62;0.00;0.00;0.62;1.57;0.97;;;25.40;28.70;;;;;;2249957;61;20793;-52
2021/10/01 09:14:05;0.00;0.00;0.62;0.00;0.00;0.62;3.23;1.10;;;25.40;28.80;;;;;;2249020;61;20380;-60
2021/10/01 09:16:50;0.00;0.00;0.62;0.00;0.00;0.62;1.80;1.03;;;25.50;28.80;;;;;;2249302;61;20365;-58
2021/10/01 09:19:38;0.00;0.00;0.62;0.00;0.00;0.62;2.10;0.93;;;25.50;28.80;;;;;;2254783;61;20407;-56
2021/10/01 09:22:27;0.00;0.00;0.62;0.00;0.00;0.62;1.50;0.87;;;25.50;28.90;;;;;;2257199;61;20351;-54
2021/10/01 09:25:17;0.00;0.00;0.62;0.00;0.00;0.62;1.43;0.90;;;25.50;28.90;;;;;;2257372;61;20385;-51
2021/10/01 09:28:12;0.00;0.00;0.62;0.00;0.00;0.62;1.40;0.80;;;25.60;28.90;;;;;;2256931;61;20578;-55
2021/10/01 09:30:56;0.00;0.00;0.62;0.00;0.00;0.62;1.40;0.80;;;25.60;28.90;;;;;;2256957;61;20578;-54
2021/10/01 09:33:43;0.00;0.00;0.62;0.00;0.00;0.62;1.70;1.07;;;25.70;28.90;;;;;;2257305;61;20395;-51
2021/10/01 09:36:29;0.00;0.00;0.62;0.00;0.00;0.62;1.40;0.90;;;25.70;29.00;;;;;;2257430;61;20636;-59
2021/10/01 09:39:26;0.00;0.00;0.62;0.00;0.00;0.62;1.80;1.17;;;25.70;29.00;;;;;;2256786;61;20426;-59
2021/10/01 09:42:16;0.00;0.00;0.62;0.00;0.00;0.62;2.57;1.10;;;25.70;29.00;;;;;;2257823;61;20456;-53
2021/10/01 09:45:07;0.00;0.00;0.62;0.00;0.00;0.62;1.83;1.20;;;25.80;29.00;;;;;;2257398;61;20379;-55
2021/10/01 09:47:51;0.00;0.00;0.62;0.00;0.00;0.62;1.70;0.93;;;25.80;29.00;;;;;;2257700;61;20486;-51
2021/10/01 09:50:37;0.00;0.00;0.62;0.00;0.00;0.62;1.40;0.80;;;25.90;29.10;;;;;;2257602;61;20382;-59
2021/10/01 09:53:22;0.00;0.00;0.62;0.00;0.00;0.62;1.70;0.90;;;25.90;29.00;;;;;;2257148;61;20403;-54
2021/10/01 09:56:20;0.00;0.00;0.62;0.00;0.00;0.62;1.80;0.87;;;25.90;29.00;;;;;;2257763;61;20371;-53
2021/10/01 09:59:12;0.00;0.00;0.62;0.00;0.00;0.62;1.90;1.00;;;26.00;29.10;;;;;;2257675;61;20421;-55
2021/10/01 10:02:10;0.00;0.00;0.62;0.00;0.00;0.62;2.00;0.97;;;26.00;29.10;;;;;;2257410;61;20560;-56
2021/10/01 10:04:56;0.00;0.00;0.62;0.00;0.00;0.62;1.70;0.90;;;26.00;29.00;;;;;;2257333;61;20639;-54
2021/10/01 10:07:47;0.00;0.00;0.62;0.00;0.00;0.62;2.80;1.20;;;26.00;29.00;;;;;;2257390;61;20366;-51
2021/10/01 10:10:43;0.00;0.00;0.62;0.00;0.00;0.62;1.40;0.83;;;26.00;29.00;;;;;;2257932;61;20351;-55
2021/10/01 10:13:43;0.00;0.00;0.62;0.00;0.00;0.62;1.33;0.87;;;26.10;29.10;;;;;;2257392;61;20755;-54
2021/10/01 10:16:29;0.00;0.00;0.62;0.00;0.00;0.62;1.37;0.90;;;26.10;29.10;;;;;;2257088;61;20362;-56
2021/10/01 10:19:20;0.00;0.00;0.62;0.00;0.00;0.62;1.33;0.90;;;26.20;29.10;;;;;;2257702;61;20421;-56
2021/10/01 10:22:05;0.00;0.00;0.62;0.00;0.00;0.62;1.50;0.87;;;26.20;29.10;;;;;;2257273;61;20362;-54
2021/10/01 10:24:51;0.00;0.00;0.62;0.00;0.00;0.62;1.80;0.97;;;26.20;29.00;;;;;;2257391;61;20446;-57
2021/10/01 10:27:36;0.00;0.00;0.62;0.00;0.00;0.62;1.57;0.90;;;26.20;29.00;;;;;;2257638;61;20350;-55
2021/10/01 10:30:21;0.00;0.00;0.62;0.00;0.00;0.62;1.37;0.80;;;26.20;29.00;;;;;;2256970;61;20358;-55
2021/10/01 10:33:36;0.00;0.00;0.62;0.00;0.00;0.62;1.43;0.90;;;26.20;29.00;;;;;;2257498;61;20435;-55
2021/10/01 10:36:35;0.00;0.00;0.62;0.00;0.00;0.62;1.33;0.77;;;26.30;29.00;;;;;;2257208;61;20612;-55
2021/10/01 10:39:54;0.00;0.00;0.62;0.00;0.00;0.62;1.50;0.90;;;26.30;29.00;;;;;;2257447;61;20399;-54
2021/10/01 10:42:41;0.00;0.00;0.62;0.00;0.00;0.62;1.50;0.90;;;26.30;29.00;;;;;;2244564;61;20369;-57
2021/10/01 10:45:27;0.00;0.00;0.62;0.00;0.00;0.62;1.67;0.90;;;26.30;28.90;;;;;;2244113;61;20409;-57
2021/10/01 10:48:19;0.00;0.00;0.62;0.00;0.00;0.62;1.30;0.80;;;26.30;29.00;;;;;;2256297;61;20371;-55
2021/10/01 10:51:03;0.00;0.00;0.62;0.00;0.00;0.62;1.50;1.00;;;26.30;29.00;;;;;;2257344;61;20574;-54
2021/10/01 10:54:06;0.00;0.00;0.62;0.00;0.00;0.62;1.40;0.90;;;26.30;28.90;;;;;;2257378;61;20410;-53
2021/10/01 10:57:28;0.00;0.00;0.62;0.00;0.00;0.62;1.30;0.80;;;26.40;29.00;;;;;;2257175;61;20475;-53
2021/10/01 11:00:29;0.00;0.00;0.62;0.00;0.00;0.62;1.37;0.77;;;26.40;29.00;;;;;;2256847;61;20418;-56
2021/10/01 11:03:21;0.00;0.00;0.62;0.00;0.00;0.62;1.20;0.70;;;26.40;28.90;;;;;;2257556;61;20727;-56
2021/10/01 11:06:14;0.00;0.00;0.62;0.00;0.00;0.62;1.70;1.00;;;26.40;28.90;;;;;;2256870;61;20355;-58
2021/10/01 11:09:29;0.00;0.00;0.62;0.00;0.00;0.62;1.60;0.90;;;26.40;28.90;;;;;;2257451;61;20604;-54
2021/10/01 11:12:27;0.00;0.00;0.62;0.00;0.00;0.62;1.40;0.80;;;26.50;28.90;;;;;;2257260;61;20430;-54
2021/10/01 11:15:15;0.00;0.00;0.62;0.00;0.00;0.62;1.30;0.70;;;26.50;28.90;;;;;;2256978;61;20427;-54
2021/10/01 11:18:15;0.00;0.00;0.62;0.00;0.00;0.62;1.80;1.00;;;26.50;28.90;;;;;;2257473;61;20459;-54
2021/10/01 11:21:00;0.00;0.00;0.62;0.00;0.00;0.62;1.50;1.00;;;26.50;28.90;;;;;;2256961;61;20747;-58
2021/10/01 11:23:56;0.00;0.00;0.62;0.00;0.00;0.62;1.40;0.87;;;26.50;28.90;;;;;;2257269;61;20374;-55
2021/10/01 11:26:44;0.00;0.00;0.62;0.00;0.00;0.62;1.50;0.90;;;26.50;28.90;;;;;;2257100;61;20395;-52
2021/10/01 11:29:31;0.00;0.00;0.62;0.00;0.00;0.62;2.00;1.13;;;26.50;28.90;;;;;;2256879;61;20363;-58
2021/10/01 11:32:19;0.00;0.00;0.62;0.00;0.00;0.62;1.60;0.90;;;26.50;28.90;;;;;;2257436;61;20378;-53
2021/10/01 11:35:04;0.00;0.00;0.62;0.00;0.00;0.62;1.50;0.90;;;26.50;28.90;;;;;;2257237;61;20378;-55
2021/10/01 11:37:50;0.00;0.00;0.62;0.00;0.00;0.62;2.07;0.70;;;26.60;28.90;;;;;;2256807;61;20354;-57
2021/10/01 11:40:35;0.00;0.00;0.62;0.00;0.00;0.62;1.57;0.80;;;26.50;28.80;;;;;;2257322;61;20395;-55
2021/10/01 11:43:22;0.00;0.00;0.62;0.00;0.00;0.62;1.53;0.70;;;26.60;28.90;;;;;;2256911;61;20354;-55
2021/10/01 11:46:06;0.00;0.00;0.62;0.00;0.00;0.62;1.60;0.80;;;26.60;28.90;;;;;;2257275;61;20367;-56
2021/10/01 11:48:51;0.00;0.00;0.62;0.00;0.00;0.62;1.97;0.80;;;26.60;28.90;;;;;;2257086;61;20443;-55
2021/10/01 11:51:35;0.00;0.00;0.62;0.00;0.00;0.62;1.37;0.70;;;26.60;28.90;;;;;;2256868;61;20447;-54
2021/10/01 11:54:21;0.00;0.00;0.62;0.00;0.00;0.62;1.20;0.70;;;26.60;28.90;;;;;;2257225;61;20437;-55
2021/10/01 11:57:08;0.00;0.00;0.62;0.00;0.00;0.62;1.57;0.70;;;26.60;28.90;;;;;;2257201;61;20435;-55
2021/10/01 11:59:57;0.00;0.00;0.62;0.00;0.00;0.62;1.67;0.73;;;26.60;28.90;;;;;;2256931;61;20382;-53
2021/10/01 12:02:44;0.00;0.00;0.62;0.00;0.00;0.62;1.40;0.80;;;26.70;29.00;;;;;;2257156;61;20362;-55
2021/10/01 12:05:32;0.00;0.00;0.62;0.00;0.00;0.62;1.70;0.90;;;26.70;29.00;;;;;;2256798;61;20402;-57
2021/10/01 12:08:21;0.00;0.00;0.62;0.00;0.00;0.62;2.57;0.93;;;26.70;29.10;;;;;;2257233;61;20371;-55
2021/10/01 12:11:07;0.00;0.00;0.62;0.00;0.00;0.62;1.80;1.13;;;26.70;29.20;;;;;;2257158;61;20625;-56
2021/10/01 12:13:52;0.00;0.00;0.62;0.00;0.00;0.62;1.30;0.70;;;26.70;29.30;;;;;;2256767;61;20386;-55
2021/10/01 12:16:39;0.00;0.00;0.62;0.00;0.00;0.62;1.90;0.73;;;26.80;29.50;;;;;;2257286;61;20358;-57
2021/10/01 12:19:26;0.00;0.00;0.62;0.00;0.00;0.62;2.43;0.90;;;26.80;29.50;;;;;;2257216;61;20385;-55
2021/10/01 12:22:13;0.00;0.00;0.62;0.00;0.00;0.62;1.30;0.70;;;26.80;29.50;;;;;;2256895;61;20354;-55
2021/10/01 12:24:58;0.00;0.00;0.62;0.00;0.00;0.62;1.90;1.00;;;26.90;29.60;;;;;;2257273;61;20398;-58
2021/10/01 12:27:44;0.00;0.00;0.62;0.00;0.00;0.62;1.30;0.73;;;26.90;29.60;;;;;;2256876;61;20738;-57
2021/10/01 12:30:29;0.00;0.00;0.62;0.00;0.00;0.62;1.80;0.70;;;27.00;29.70;;;;;;2257252;61;20367;-58
2021/10/01 12:33:17;0.00;0.00;0.62;0.00;0.00;0.62;1.93;0.80;;;27.00;29.70;;;;;;2257442;61;20450;-56
2021/10/01 12:36:02;0.00;0.00;0.62;0.00;0.00;0.62;1.20;0.70;;;27.10;29.70;;;;;;2257698;61;20359;-57